sensor_id;sensor_type;location;lat;lon;timestamp;P1;durP1;ratioP1;P2;durP2;ratioP2
8544;SDS011;4310;51.054;6.994;2022-12-01T00:00:27;70.00;;;65.40;;
8544;SDS011;4310;51.054;6.994;2022-12-01T00:01:30;69.40;;;64.82;;
8544;SDS011;4310;51.054;6.994;2022-12-01T00:02:34;68.52;;;64.12;;
8544;SDS011;4310;51.054;6.994;2022-12-01T00:03:38;69.25;;;64.85;;
8544;SDS011;4310;51.054;6.994;2022-12-01T00:04:41;67.75;;;63.40;;
8544;SDS011;4310;51.054;6.994;2022-12-01T00:05:46;72.78;;;68.15;;
8544;SDS011;4310;51.054;6.994;2022-12-01T00:06:50;71.62;;;66.97;;
8544;SDS011;4310;51.054;6.994;2022-12-01T00:09:05;68.15;;;63.75;;
8544;SDS011;4310;51.054;6.994;2022-12-01T00:10:26;67.75;;;63.35;;
8544;SDS011;4310;51.054;6.994;2022-12-01T00:11:30;67.20;;;62.70;;
8544;SDS011;4310;51.054;6.994;2022-12-01T00:12:34;68.72;;;64.10;;
8544;SDS011;4310;51.054;6.994;2022-12-01T00:13:38;67.45;;;63.02;;
8544;SDS011;4310;51.054;6.994;2022-12-01T00:14:41;70.92;;;66.22;;
8544;SDS011;4310;51.054;6.994;2022-12-01T00:15:45;68.40;;;63.95;;
8544;SDS011;4310;51.054;6.994;2022-12-01T00:16:49;70.75;;;66.17;;
8544;SDS011;4310;51.054;6.994;2022-12-01T00:19:04;71.65;;;66.95;;
8544;SDS011;4310;51.054;6.994;2022-12-01T00:20:09;69.72;;;65.25;;
8544;SDS011;4310;51.054;6.994;2022-12-01T00:21:13;69.55;;;65.22;;
8544;SDS011;4310;51.054;6.994;2022-12-01T00:22:17;69.85;;;65.20;;
8544;SDS011;4310;51.054;6.994;2022-12-01T00:23:21;70.20;;;65.70;;
8544;SDS011;4310;51.054;6.994;2022-12-01T00:24:25;70.73;;;66.03;;
8544;SDS011;4310;51.054;6.994;2022-12-01T00:25:29;72.00;;;67.42;;
8544;SDS011;4310;51.054;6.994;2022-12-01T00:26:35;70.72;;;66.10;;
8544;SDS011;4310;51.054;6.994;2022-12-01T00:27:39;67.12;;;62.62;;
8544;SDS011;4310;51.054;6.994;2022-12-01T00:28:43;69.15;;;64.42;;
8544;SDS011;4310;51.054;6.994;2022-12-01T00:29:48;71.42;;;66.62;;
8544;SDS011;4310;51.054;6.994;2022-12-01T00:32:04;70.32;;;65.67;;
8544;SDS011;4310;51.054;6.994;2022-12-01T00:33:08;70.87;;;66.30;;
8544;SDS011;4310;51.054;6.994;2022-12-01T00:34:12;72.80;;;67.90;;
8544;SDS011;4310;51.054;6.994;2022-12-01T00:35:17;74.75;;;69.97;;
8544;SDS011;4310;51.054;6.994;2022-12-01T00:36:21;75.80;;;70.83;;
8544;SDS011;4310;51.054;6.994;2022-12-01T00:37:25;77.60;;;72.47;;
8544;SDS011;4310;51.054;6.994;2022-12-01T00:38:29;76.25;;;71.30;;
8544;SDS011;4310;51.054;6.994;2022-12-01T00:39:32;74.92;;;70.12;;
8544;SDS011;4310;51.054;6.994;2022-12-01T00:40:36;72.53;;;67.72;;
8544;SDS011;4310;51.054;6.994;2022-12-01T00:41:40;77.87;;;72.87;;
8544;SDS011;4310;51.054;6.994;2022-12-01T00:43:55;76.75;;;72.03;;
8544;SDS011;4310;51.054;6.994;2022-12-01T00:45:05;80.07;;;75.17;;
8544;SDS011;4310;51.054;6.994;2022-12-01T00:46:09;76.47;;;71.47;;
8544;SDS011;4310;51.054;6.994;2022-12-01T00:47:13;76.42;;;71.22;;
8544;SDS011;4310;51.054;6.994;2022-12-01T00:48:17;76.65;;;71.57;;
8544;SDS011;4310;51.054;6.994;2022-12-01T00:49:20;75.60;;;70.77;;
8544;SDS011;4310;51.054;6.994;2022-12-01T00:50:24;75.65;;;70.67;;
8544;SDS011;4310;51.054;6.994;2022-12-01T00:51:28;74.05;;;69.12;;
8544;SDS011;4310;51.054;6.994;2022-12-01T00:52:34;73.90;;;69.05;;
8544;SDS011;4310;51.054;6.994;2022-12-01T00:53:38;72.70;;;67.75;;
8544;SDS011;4310;51.054;6.994;2022-12-01T00:54:42;74.07;;;69.03;;
8544;SDS011;4310;51.054;6.994;2022-12-01T00:56:57;73.20;;;68.37;;
8544;SDS011;4310;51.054;6.994;2022-12-01T00:58:01;76.28;;;71.20;;
8544;SDS011;4310;51.054;6.994;2022-12-01T00:59:04;74.42;;;69.60;;
8544;SDS011;4310;51.054;6.994;2022-12-01T01:00:09;76.07;;;70.92;;
8544;SDS011;4310;51.054;6.994;2022-12-01T01:01:14;74.22;;;69.32;;
8544;SDS011;4310;51.054;6.994;2022-12-01T01:02:18;75.30;;;70.30;;
8544;SDS011;4310;51.054;6.994;2022-12-01T01:03:21;74.65;;;69.37;;
8544;SDS011;4310;51.054;6.994;2022-12-01T01:04:25;76.10;;;70.78;;
8544;SDS011;4310;51.054;6.994;2022-12-01T01:05:30;76.70;;;71.42;;
8544;SDS011;4310;51.054;6.994;2022-12-01T01:06:35;77.50;;;72.10;;
8544;SDS011;4310;51.054;6.994;2022-12-01T01:08:51;80.42;;;74.85;;
8544;SDS011;4310;51.054;6.994;2022-12-01T01:09:54;79.55;;;74.10;;
8544;SDS011;4310;51.054;6.994;2022-12-01T01:10:58;83.03;;;76.92;;
8544;SDS011;4310;51.054;6.994;2022-12-01T01:12:03;83.95;;;77.95;;
8544;SDS011;4310;51.054;6.994;2022-12-01T01:13:06;85.22;;;79.22;;
8544;SDS011;4310;51.054;6.994;2022-12-01T01:14:10;84.10;;;77.78;;
8544;SDS011;4310;51.054;6.994;2022-12-01T01:15:14;83.15;;;77.20;;
8544;SDS011;4310;51.054;6.994;2022-12-01T01:16:18;85.17;;;78.65;;
8544;SDS011;4310;51.054;6.994;2022-12-01T01:17:22;86.28;;;79.90;;
8544;SDS011;4310;51.054;6.994;2022-12-01T01:18:26;85.90;;;78.97;;
8544;SDS011;4310;51.054;6.994;2022-12-01T01:19:30;87.12;;;80.42;;
8544;SDS011;4310;51.054;6.994;2022-12-01T01:20:33;87.50;;;80.80;;
8544;SDS011;4310;51.054;6.994;2022-12-01T01:21:37;89.07;;;82.25;;
8544;SDS011;4310;51.054;6.994;2022-12-01T01:23:53;90.42;;;83.03;;
8544;SDS011;4310;51.054;6.994;2022-12-01T01:24:57;88.37;;;81.17;;
8544;SDS011;4310;51.054;6.994;2022-12-01T01:26:01;88.22;;;81.35;;
8544;SDS011;4310;51.054;6.994;2022-12-01T01:27:05;89.07;;;81.70;;
8544;SDS011;4310;51.054;6.994;2022-12-01T01:28:09;92.85;;;85.20;;
8544;SDS011;4310;51.054;6.994;2022-12-01T01:29:12;94.25;;;86.82;;
8544;SDS011;4310;51.054;6.994;2022-12-01T01:30:16;94.07;;;86.67;;
8544;SDS011;4310;51.054;6.994;2022-12-01T01:31:21;93.30;;;85.95;;
8544;SDS011;4310;51.054;6.994;2022-12-01T01:32:25;93.17;;;85.33;;
8544;SDS011;4310;51.054;6.994;2022-12-01T01:33:28;91.08;;;83.67;;
8544;SDS011;4310;51.054;6.994;2022-12-01T01:34:32;93.60;;;86.08;;
8544;SDS011;4310;51.054;6.994;2022-12-01T01:35:36;92.30;;;84.62;;
8544;SDS011;4310;51.054;6.994;2022-12-01T01:36:39;94.20;;;86.50;;
8544;SDS011;4310;51.054;6.994;2022-12-01T01:37:43;93.90;;;86.10;;
8544;SDS011;4310;51.054;6.994;2022-12-01T01:39:59;97.65;;;89.35;;
8544;SDS011;4310;51.054;6.994;2022-12-01T01:41:02;94.42;;;86.55;;
8544;SDS011;4310;51.054;6.994;2022-12-01T01:42:08;94.90;;;87.00;;
8544;SDS011;4310;51.054;6.994;2022-12-01T01:43:12;95.22;;;87.40;;
8544;SDS011;4310;51.054;6.994;2022-12-01T01:45:38;100.20;;;91.72;;
8544;SDS011;4310;51.054;6.994;2022-12-01T01:47:53;97.70;;;89.58;;
8544;SDS011;4310;51.054;6.994;2022-12-01T01:50:13;93.47;;;85.62;;
8544;SDS011;4310;51.054;6.994;2022-12-01T01:51:19;95.53;;;87.57;;
8544;SDS011;4310;51.054;6.994;2022-12-01T01:52:23;94.85;;;86.85;;
8544;SDS011;4310;51.054;6.994;2022-12-01T01:53:27;90.70;;;83.00;;
8544;SDS011;4310;51.054;6.994;2022-12-01T01:54:32;96.60;;;88.42;;
8544;SDS011;4310;51.054;6.994;2022-12-01T01:55:36;97.25;;;89.07;;
8544;SDS011;4310;51.054;6.994;2022-12-01T01:56:40;94.57;;;86.23;;
8544;SDS011;4310;51.054;6.994;2022-12-01T01:57:44;94.90;;;86.90;;
8544;SDS011;4310;51.054;6.994;2022-12-01T02:00:02;91.08;;;83.42;;
8544;SDS011;4310;51.054;6.994;2022-12-01T02:01:06;93.33;;;85.42;;
8544;SDS011;4310;51.054;6.994;2022-12-01T02:02:10;92.65;;;84.58;;
8544;SDS011;4310;51.054;6.994;2022-12-01T02:03:15;94.70;;;86.42;;
8544;SDS011;4310;51.054;6.994;2022-12-01T02:04:19;94.77;;;86.75;;
8544;SDS011;4310;51.054;6.994;2022-12-01T02:05:23;92.10;;;84.28;;
8544;SDS011;4310;51.054;6.994;2022-12-01T02:06:27;95.15;;;87.30;;
8544;SDS011;4310;51.054;6.994;2022-12-01T02:07:32;92.25;;;84.13;;
8544;SDS011;4310;51.054;6.994;2022-12-01T02:08:36;98.42;;;89.92;;
8544;SDS011;4310;51.054;6.994;2022-12-01T02:09:39;91.02;;;83.27;;
8544;SDS011;4310;51.054;6.994;2022-12-01T02:10:48;93.92;;;85.87;;
8544;SDS011;4310;51.054;6.994;2022-12-01T02:13:07;95.95;;;87.97;;
8544;SDS011;4310;51.054;6.994;2022-12-01T02:14:12;97.80;;;89.87;;
8544;SDS011;4310;51.054;6.994;2022-12-01T02:15:19;96.67;;;88.62;;
8544;SDS011;4310;51.054;6.994;2022-12-01T02:16:24;98.62;;;90.75;;
8544;SDS011;4310;51.054;6.994;2022-12-01T02:17:29;95.83;;;87.55;;
8544;SDS011;4310;51.054;6.994;2022-12-01T02:18:36;91.55;;;84.00;;
8544;SDS011;4310;51.054;6.994;2022-12-01T02:21:04;90.80;;;83.07;;
8544;SDS011;4310;51.054;6.994;2022-12-01T02:22:11;90.72;;;83.30;;
8544;SDS011;4310;51.054;6.994;2022-12-01T02:23:30;89.58;;;82.02;;
8544;SDS011;4310;51.054;6.994;2022-12-01T02:24:45;88.90;;;81.50;;
8544;SDS011;4310;51.054;6.994;2022-12-01T02:25:49;89.17;;;81.72;;
8544;SDS011;4310;51.054;6.994;2022-12-01T02:26:55;90.20;;;82.82;;
8544;SDS011;4310;51.054;6.994;2022-12-01T02:29:35;87.45;;;80.30;;
8544;SDS011;4310;51.054;6.994;2022-12-01T02:30:40;85.90;;;78.87;;
8544;SDS011;4310;51.054;6.994;2022-12-01T02:31:45;82.15;;;75.40;;
8544;SDS011;4310;51.054;6.994;2022-12-01T02:32:51;84.47;;;77.62;;
8544;SDS011;4310;51.054;6.994;2022-12-01T02:33:56;86.53;;;79.58;;
8544;SDS011;4310;51.054;6.994;2022-12-01T02:35:02;85.00;;;77.80;;
8544;SDS011;4310;51.054;6.994;2022-12-01T02:36:10;83.37;;;76.37;;
8544;SDS011;4310;51.054;6.994;2022-12-01T02:38:27;85.70;;;78.72;;
8544;SDS011;4310;51.054;6.994;2022-12-01T02:39:31;80.38;;;73.80;;
8544;SDS011;4310;51.054;6.994;2022-12-01T02:40:39;82.25;;;75.47;;
8544;SDS011;4310;51.054;6.994;2022-12-01T02:41:47;83.42;;;76.67;;
8544;SDS011;4310;51.054;6.994;2022-12-01T02:44:02;83.52;;;77.00;;
8544;SDS011;4310;51.054;6.994;2022-12-01T02:45:08;84.32;;;77.45;;
8544;SDS011;4310;51.054;6.994;2022-12-01T02:46:13;83.33;;;76.47;;
8544;SDS011;4310;51.054;6.994;2022-12-01T02:47:18;84.65;;;77.65;;
8544;SDS011;4310;51.054;6.994;2022-12-01T02:48:22;85.77;;;79.07;;
8544;SDS011;4310;51.054;6.994;2022-12-01T02:49:28;85.03;;;78.42;;
8544;SDS011;4310;51.054;6.994;2022-12-01T02:51:44;80.05;;;73.70;;
8544;SDS011;4310;51.054;6.994;2022-12-01T02:52:48;84.67;;;77.82;;
8544;SDS011;4310;51.054;6.994;2022-12-01T02:53:52;83.95;;;77.35;;
8544;SDS011;4310;51.054;6.994;2022-12-01T02:54:57;83.47;;;76.70;;
8544;SDS011;4310;51.054;6.994;2022-12-01T02:56:03;86.00;;;79.30;;
8544;SDS011;4310;51.054;6.994;2022-12-01T02:57:08;84.72;;;78.47;;
8544;SDS011;4310;51.054;6.994;2022-12-01T02:58:12;84.55;;;77.90;;
8544;SDS011;4310;51.054;6.994;2022-12-01T02:59:16;84.70;;;77.97;;
8544;SDS011;4310;51.054;6.994;2022-12-01T03:00:20;83.00;;;76.60;;
8544;SDS011;4310;51.054;6.994;2022-12-01T03:01:27;80.72;;;74.42;;
8544;SDS011;4310;51.054;6.994;2022-12-01T03:02:32;79.03;;;72.70;;
8544;SDS011;4310;51.054;6.994;2022-12-01T03:04:54;78.35;;;71.97;;
8544;SDS011;4310;51.054;6.994;2022-12-01T03:07:11;75.72;;;69.65;;
8544;SDS011;4310;51.054;6.994;2022-12-01T03:08:19;79.25;;;73.17;;
8544;SDS011;4310;51.054;6.994;2022-12-01T03:09:24;75.53;;;69.83;;
8544;SDS011;4310;51.054;6.994;2022-12-01T03:10:30;76.28;;;70.32;;
8544;SDS011;4310;51.054;6.994;2022-12-01T03:11:35;79.32;;;73.25;;
8544;SDS011;4310;51.054;6.994;2022-12-01T03:12:41;75.45;;;69.62;;
8544;SDS011;4310;51.054;6.994;2022-12-01T03:14:59;76.77;;;70.70;;
8544;SDS011;4310;51.054;6.994;2022-12-01T03:16:03;79.27;;;73.15;;
8544;SDS011;4310;51.054;6.994;2022-12-01T03:17:10;77.08;;;71.17;;
8544;SDS011;4310;51.054;6.994;2022-12-01T03:18:15;74.25;;;68.25;;
8544;SDS011;4310;51.054;6.994;2022-12-01T03:19:20;75.72;;;69.72;;
8544;SDS011;4310;51.054;6.994;2022-12-01T03:20:26;77.53;;;71.45;;
8544;SDS011;4310;51.054;6.994;2022-12-01T03:21:30;78.80;;;72.40;;
8544;SDS011;4310;51.054;6.994;2022-12-01T03:22:35;74.58;;;68.37;;
8544;SDS011;4310;51.054;6.994;2022-12-01T03:24:52;81.10;;;74.92;;
8544;SDS011;4310;51.054;6.994;2022-12-01T03:25:58;76.60;;;70.60;;
8544;SDS011;4310;51.054;6.994;2022-12-01T03:27:02;77.65;;;71.65;;
8544;SDS011;4310;51.054;6.994;2022-12-01T03:28:07;76.82;;;70.80;;
8544;SDS011;4310;51.054;6.994;2022-12-01T03:29:13;76.17;;;70.25;;
8544;SDS011;4310;51.054;6.994;2022-12-01T03:30:18;74.47;;;68.22;;
8544;SDS011;4310;51.054;6.994;2022-12-01T03:31:22;75.22;;;69.22;;
8544;SDS011;4310;51.054;6.994;2022-12-01T03:32:28;74.80;;;68.37;;
8544;SDS011;4310;51.054;6.994;2022-12-01T03:33:34;74.53;;;68.17;;
8544;SDS011;4310;51.054;6.994;2022-12-01T03:34:41;78.47;;;71.77;;
8544;SDS011;4310;51.054;6.994;2022-12-01T03:35:47;77.27;;;70.50;;
8544;SDS011;4310;51.054;6.994;2022-12-01T03:36:53;76.03;;;69.63;;
8544;SDS011;4310;51.054;6.994;2022-12-01T03:37:58;75.62;;;69.32;;
8544;SDS011;4310;51.054;6.994;2022-12-01T03:39:03;73.52;;;67.10;;
8544;SDS011;4310;51.054;6.994;2022-12-01T03:40:09;73.17;;;66.50;;
8544;SDS011;4310;51.054;6.994;2022-12-01T03:41:20;73.20;;;66.45;;
8544;SDS011;4310;51.054;6.994;2022-12-01T03:42:19;71.87;;;65.20;;
8544;SDS011;4310;51.054;6.994;2022-12-01T03:43:25;72.47;;;65.67;;
8544;SDS011;4310;51.054;6.994;2022-12-01T03:45:42;73.00;;;66.12;;
8544;SDS011;4310;51.054;6.994;2022-12-01T03:46:47;74.85;;;67.95;;
8544;SDS011;4310;51.054;6.994;2022-12-01T03:47:51;62.73;;;56.37;;
8544;SDS011;4310;51.054;6.994;2022-12-01T03:48:55;69.35;;;62.65;;
8544;SDS011;4310;51.054;6.994;2022-12-01T03:49:59;72.22;;;65.40;;
8544;SDS011;4310;51.054;6.994;2022-12-01T03:52:18;70.52;;;63.98;;
8544;SDS011;4310;51.054;6.994;2022-12-01T03:53:21;70.20;;;63.35;;
8544;SDS011;4310;51.054;6.994;2022-12-01T03:54:27;68.55;;;61.65;;
8544;SDS011;4310;51.054;6.994;2022-12-01T03:55:32;65.25;;;58.50;;
8544;SDS011;4310;51.054;6.994;2022-12-01T03:56:37;72.70;;;65.52;;
8544;SDS011;4310;51.054;6.994;2022-12-01T03:57:43;74.37;;;67.00;;
8544;SDS011;4310;51.054;6.994;2022-12-01T03:58:49;73.83;;;66.43;;
8544;SDS011;4310;51.054;6.994;2022-12-01T03:59:53;84.30;;;76.40;;
8544;SDS011;4310;51.054;6.994;2022-12-01T04:00:57;69.12;;;61.83;;
8544;SDS011;4310;51.054;6.994;2022-12-01T04:02:01;86.50;;;78.80;;
8544;SDS011;4310;51.054;6.994;2022-12-01T04:03:05;84.35;;;76.45;;
8544;SDS011;4310;51.054;6.994;2022-12-01T04:05:21;87.78;;;79.62;;
8544;SDS011;4310;51.054;6.994;2022-12-01T04:06:25;86.23;;;77.67;;
8544;SDS011;4310;51.054;6.994;2022-12-01T04:07:29;75.80;;;67.67;;
8544;SDS011;4310;51.054;6.994;2022-12-01T04:08:32;74.77;;;66.02;;
8544;SDS011;4310;51.054;6.994;2022-12-01T04:09:38;73.97;;;65.05;;
8544;SDS011;4310;51.054;6.994;2022-12-01T04:10:45;77.95;;;69.00;;
8544;SDS011;4310;51.054;6.994;2022-12-01T04:11:49;74.85;;;65.40;;
8544;SDS011;4310;51.054;6.994;2022-12-01T04:13:10;74.07;;;65.70;;
8544;SDS011;4310;51.054;6.994;2022-12-01T04:14:16;88.03;;;79.15;;
8544;SDS011;4310;51.054;6.994;2022-12-01T04:15:20;92.05;;;82.88;;
8544;SDS011;4310;51.054;6.994;2022-12-01T04:16:23;87.22;;;78.65;;
8544;SDS011;4310;51.054;6.994;2022-12-01T04:17:27;89.37;;;80.57;;
8544;SDS011;4310;51.054;6.994;2022-12-01T04:18:31;81.85;;;73.30;;
8544;SDS011;4310;51.054;6.994;2022-12-01T04:19:35;92.92;;;83.97;;
8544;SDS011;4310;51.054;6.994;2022-12-01T04:20:38;93.70;;;84.65;;
8544;SDS011;4310;51.054;6.994;2022-12-01T04:21:44;95.50;;;86.40;;
8544;SDS011;4310;51.054;6.994;2022-12-01T04:22:59;93.10;;;84.17;;
8544;SDS011;4310;51.054;6.994;2022-12-01T04:24:03;80.45;;;71.92;;
8544;SDS011;4310;51.054;6.994;2022-12-01T04:25:08;84.28;;;75.97;;
8544;SDS011;4310;51.054;6.994;2022-12-01T04:27:23;93.42;;;84.85;;
8544;SDS011;4310;51.054;6.994;2022-12-01T04:28:27;76.75;;;67.75;;
8544;SDS011;4310;51.054;6.994;2022-12-01T04:29:30;74.37;;;66.45;;
8544;SDS011;4310;51.054;6.994;2022-12-01T04:31:46;81.55;;;72.95;;
8544;SDS011;4310;51.054;6.994;2022-12-01T04:32:51;81.12;;;72.53;;
8544;SDS011;4310;51.054;6.994;2022-12-01T04:35:17;79.72;;;71.05;;
8544;SDS011;4310;51.054;6.994;2022-12-01T04:36:21;76.07;;;60.05;;
8544;SDS011;4310;51.054;6.994;2022-12-01T04:37:25;86.20;;;77.60;;
8544;SDS011;4310;51.054;6.994;2022-12-01T04:38:28;77.65;;;69.27;;
8544;SDS011;4310;51.054;6.994;2022-12-01T04:39:32;86.00;;;77.10;;
8544;SDS011;4310;51.054;6.994;2022-12-01T04:40:37;80.05;;;69.72;;
8544;SDS011;4310;51.054;6.994;2022-12-01T04:41:41;82.25;;;73.83;;
8544;SDS011;4310;51.054;6.994;2022-12-01T04:42:45;79.42;;;70.97;;
8544;SDS011;4310;51.054;6.994;2022-12-01T04:43:50;80.35;;;71.75;;
8544;SDS011;4310;51.054;6.994;2022-12-01T04:46:06;67.10;;;57.03;;
8544;SDS011;4310;51.054;6.994;2022-12-01T04:47:09;80.57;;;72.17;;
8544;SDS011;4310;51.054;6.994;2022-12-01T04:48:13;81.00;;;72.72;;
8544;SDS011;4310;51.054;6.994;2022-12-01T04:49:17;79.03;;;70.87;;
8544;SDS011;4310;51.054;6.994;2022-12-01T04:50:21;75.52;;;67.27;;
8544;SDS011;4310;51.054;6.994;2022-12-01T04:51:24;69.20;;;60.45;;
8544;SDS011;4310;51.054;6.994;2022-12-01T04:52:28;77.80;;;69.42;;
8544;SDS011;4310;51.054;6.994;2022-12-01T04:53:32;81.85;;;73.37;;
8544;SDS011;4310;51.054;6.994;2022-12-01T04:54:38;79.50;;;71.35;;
8544;SDS011;4310;51.054;6.994;2022-12-01T04:56:53;74.37;;;64.20;;
8544;SDS011;4310;51.054;6.994;2022-12-01T04:57:57;67.90;;;58.17;;
8544;SDS011;4310;51.054;6.994;2022-12-01T04:59:02;70.08;;;62.10;;
8544;SDS011;4310;51.054;6.994;2022-12-01T05:00:24;69.40;;;61.75;;
8544;SDS011;4310;51.054;6.994;2022-12-01T05:01:28;79.20;;;71.02;;
8544;SDS011;4310;51.054;6.994;2022-12-01T05:02:31;78.42;;;70.08;;
8544;SDS011;4310;51.054;6.994;2022-12-01T05:03:36;67.22;;;59.20;;
8544;SDS011;4310;51.054;6.994;2022-12-01T05:05:59;70.22;;;63.02;;
8544;SDS011;4310;51.054;6.994;2022-12-01T05:07:03;64.77;;;57.70;;
8544;SDS011;4310;51.054;6.994;2022-12-01T05:08:06;60.23;;;52.40;;
8544;SDS011;4310;51.054;6.994;2022-12-01T05:09:11;58.15;;;51.63;;
8544;SDS011;4310;51.054;6.994;2022-12-01T05:10:15;60.73;;;53.42;;
8544;SDS011;4310;51.054;6.994;2022-12-01T05:11:20;60.28;;;50.98;;
8544;SDS011;4310;51.054;6.994;2022-12-01T05:13:46;66.67;;;59.48;;
8544;SDS011;4310;51.054;6.994;2022-12-01T05:14:50;62.43;;;55.95;;
8544;SDS011;4310;51.054;6.994;2022-12-01T05:16:02;66.47;;;59.77;;
8544;SDS011;4310;51.054;6.994;2022-12-01T05:16:58;66.97;;;60.23;;
8544;SDS011;4310;51.054;6.994;2022-12-01T05:18:03;63.63;;;57.17;;
8544;SDS011;4310;51.054;6.994;2022-12-01T05:19:08;64.55;;;57.85;;
8544;SDS011;4310;51.054;6.994;2022-12-01T05:20:30;57.57;;;51.57;;
8544;SDS011;4310;51.054;6.994;2022-12-01T05:21:51;47.27;;;40.98;;
8544;SDS011;4310;51.054;6.994;2022-12-01T05:22:58;53.48;;;47.75;;
8544;SDS011;4310;51.054;6.994;2022-12-01T05:24:02;52.93;;;47.23;;
8544;SDS011;4310;51.054;6.994;2022-12-01T05:25:06;49.98;;;43.63;;
8544;SDS011;4310;51.054;6.994;2022-12-01T05:26:10;47.85;;;41.28;;
8544;SDS011;4310;51.054;6.994;2022-12-01T05:27:14;48.83;;;43.42;;
8544;SDS011;4310;51.054;6.994;2022-12-01T05:29:29;48.85;;;43.73;;
8544;SDS011;4310;51.054;6.994;2022-12-01T05:31:45;46.42;;;41.35;;
8544;SDS011;4310;51.054;6.994;2022-12-01T05:32:49;48.05;;;42.95;;
8544;SDS011;4310;51.054;6.994;2022-12-01T05:33:53;52.13;;;46.80;;
8544;SDS011;4310;51.054;6.994;2022-12-01T05:34:57;50.35;;;45.12;;
8544;SDS011;4310;51.054;6.994;2022-12-01T05:36:00;49.93;;;44.67;;
8544;SDS011;4310;51.054;6.994;2022-12-01T05:37:04;45.23;;;40.38;;
8544;SDS011;4310;51.054;6.994;2022-12-01T05:38:08;46.75;;;41.75;;
8544;SDS011;4310;51.054;6.994;2022-12-01T05:39:11;49.03;;;43.90;;
8544;SDS011;4310;51.054;6.994;2022-12-01T05:41:27;43.55;;;36.03;;
8544;SDS011;4310;51.054;6.994;2022-12-01T05:42:31;46.63;;;41.60;;
8544;SDS011;4310;51.054;6.994;2022-12-01T05:43:34;44.60;;;37.58;;
8544;SDS011;4310;51.054;6.994;2022-12-01T05:44:38;46.05;;;40.63;;
8544;SDS011;4310;51.054;6.994;2022-12-01T05:46:53;44.42;;;38.88;;
8544;SDS011;4310;51.054;6.994;2022-12-01T05:47:58;48.35;;;43.28;;
8544;SDS011;4310;51.054;6.994;2022-12-01T05:49:02;46.05;;;41.02;;
8544;SDS011;4310;51.054;6.994;2022-12-01T05:50:07;44.20;;;39.23;;
8544;SDS011;4310;51.054;6.994;2022-12-01T05:52:22;50.17;;;45.05;;
8544;SDS011;4310;51.054;6.994;2022-12-01T05:53:26;44.05;;;38.08;;
8544;SDS011;4310;51.054;6.994;2022-12-01T05:54:30;45.58;;;38.42;;
8544;SDS011;4310;51.054;6.994;2022-12-01T05:56:45;46.08;;;39.58;;
8544;SDS011;4310;51.054;6.994;2022-12-01T05:59:00;49.38;;;44.20;;
8544;SDS011;4310;51.054;6.994;2022-12-01T06:00:23;48.08;;;42.83;;
8544;SDS011;4310;51.054;6.994;2022-12-01T06:01:27;50.03;;;44.75;;
8544;SDS011;4310;51.054;6.994;2022-12-01T06:02:30;54.27;;;48.90;;
8544;SDS011;4310;51.054;6.994;2022-12-01T06:03:34;57.55;;;52.05;;
8544;SDS011;4310;51.054;6.994;2022-12-01T06:04:38;50.52;;;45.20;;
8544;SDS011;4310;51.054;6.994;2022-12-01T06:06:53;45.50;;;40.75;;
8544;SDS011;4310;51.054;6.994;2022-12-01T06:07:58;57.27;;;51.70;;
8544;SDS011;4310;51.054;6.994;2022-12-01T06:09:02;52.30;;;47.00;;
8544;SDS011;4310;51.054;6.994;2022-12-01T06:10:06;47.05;;;42.00;;
8544;SDS011;4310;51.054;6.994;2022-12-01T06:11:10;47.85;;;40.95;;
8544;SDS011;4310;51.054;6.994;2022-12-01T06:12:14;57.83;;;52.23;;
8544;SDS011;4310;51.054;6.994;2022-12-01T06:13:18;48.83;;;43.58;;
8544;SDS011;4310;51.054;6.994;2022-12-01T06:14:22;52.45;;;46.90;;
8544;SDS011;4310;51.054;6.994;2022-12-01T06:15:28;48.55;;;43.38;;
8544;SDS011;4310;51.054;6.994;2022-12-01T06:16:32;50.75;;;44.60;;
8544;SDS011;4310;51.054;6.994;2022-12-01T06:17:36;50.20;;;42.98;;
8544;SDS011;4310;51.054;6.994;2022-12-01T06:19:51;59.90;;;54.15;;
8544;SDS011;4310;51.054;6.994;2022-12-01T06:20:55;54.93;;;49.13;;
8544;SDS011;4310;51.054;6.994;2022-12-01T06:21:58;62.70;;;56.28;;
8544;SDS011;4310;51.054;6.994;2022-12-01T06:23:02;62.78;;;56.33;;
8544;SDS011;4310;51.054;6.994;2022-12-01T06:25:18;56.63;;;50.17;;
8544;SDS011;4310;51.054;6.994;2022-12-01T06:26:21;65.50;;;58.87;;
8544;SDS011;4310;51.054;6.994;2022-12-01T06:27:25;64.25;;;57.90;;
8544;SDS011;4310;51.054;6.994;2022-12-01T06:28:29;56.65;;;47.35;;
8544;SDS011;4310;51.054;6.994;2022-12-01T06:29:33;64.82;;;58.08;;
8544;SDS011;4310;51.054;6.994;2022-12-01T06:30:36;59.80;;;53.45;;
8544;SDS011;4310;51.054;6.994;2022-12-01T06:31:41;64.62;;;58.20;;
8544;SDS011;4310;51.054;6.994;2022-12-01T06:32:45;64.58;;;58.25;;
8544;SDS011;4310;51.054;6.994;2022-12-01T06:33:49;64.40;;;57.40;;
8544;SDS011;4310;51.054;6.994;2022-12-01T06:34:52;60.75;;;54.45;;
8544;SDS011;4310;51.054;6.994;2022-12-01T06:35:57;58.70;;;52.55;;
8544;SDS011;4310;51.054;6.994;2022-12-01T06:38:12;66.30;;;59.75;;
8544;SDS011;4310;51.054;6.994;2022-12-01T06:39:16;56.88;;;50.75;;
8544;SDS011;4310;51.054;6.994;2022-12-01T06:40:20;50.80;;;45.45;;
8544;SDS011;4310;51.054;6.994;2022-12-01T06:41:24;54.48;;;48.83;;
8544;SDS011;4310;51.054;6.994;2022-12-01T06:42:28;57.25;;;51.63;;
8544;SDS011;4310;51.054;6.994;2022-12-01T06:43:34;50.65;;;45.28;;
8544;SDS011;4310;51.054;6.994;2022-12-01T06:45:50;56.60;;;50.52;;
8544;SDS011;4310;51.054;6.994;2022-12-01T06:46:54;61.13;;;55.05;;
8544;SDS011;4310;51.054;6.994;2022-12-01T06:47:58;54.18;;;48.40;;
8544;SDS011;4310;51.054;6.994;2022-12-01T06:49:02;54.65;;;47.50;;
8544;SDS011;4310;51.054;6.994;2022-12-01T06:50:07;51.70;;;45.48;;
8544;SDS011;4310;51.054;6.994;2022-12-01T06:51:11;61.40;;;55.52;;
8544;SDS011;4310;51.054;6.994;2022-12-01T06:52:15;62.53;;;56.30;;
8544;SDS011;4310;51.054;6.994;2022-12-01T06:53:18;62.35;;;56.15;;
8544;SDS011;4310;51.054;6.994;2022-12-01T06:54:22;54.25;;;48.48;;
8544;SDS011;4310;51.054;6.994;2022-12-01T06:55:26;49.77;;;44.30;;
8544;SDS011;4310;51.054;6.994;2022-12-01T06:56:30;53.65;;;46.20;;
8544;SDS011;4310;51.054;6.994;2022-12-01T06:57:33;56.42;;;50.52;;
8544;SDS011;4310;51.054;6.994;2022-12-01T06:58:37;54.38;;;48.60;;
8544;SDS011;4310;51.054;6.994;2022-12-01T06:59:41;60.30;;;54.38;;
8544;SDS011;4310;51.054;6.994;2022-12-01T07:00:45;68.07;;;61.68;;
8544;SDS011;4310;51.054;6.994;2022-12-01T07:01:48;66.28;;;60.10;;
8544;SDS011;4310;51.054;6.994;2022-12-01T07:02:52;68.25;;;61.70;;
8544;SDS011;4310;51.054;6.994;2022-12-01T07:03:56;58.25;;;51.58;;
8544;SDS011;4310;51.054;6.994;2022-12-01T07:05:00;66.17;;;59.50;;
8544;SDS011;4310;51.054;6.994;2022-12-01T07:06:04;68.80;;;61.80;;
8544;SDS011;4310;51.054;6.994;2022-12-01T07:08:19;68.10;;;61.30;;
8544;SDS011;4310;51.054;6.994;2022-12-01T07:09:23;72.25;;;65.17;;
8544;SDS011;4310;51.054;6.994;2022-12-01T07:10:27;73.35;;;66.25;;
8544;SDS011;4310;51.054;6.994;2022-12-01T07:11:31;72.15;;;65.50;;
8544;SDS011;4310;51.054;6.994;2022-12-01T07:13:47;68.83;;;61.80;;
8544;SDS011;4310;51.054;6.994;2022-12-01T07:14:52;63.20;;;56.60;;
8544;SDS011;4310;51.054;6.994;2022-12-01T07:15:56;61.20;;;54.85;;
8544;SDS011;4310;51.054;6.994;2022-12-01T07:17:00;72.45;;;65.45;;
8544;SDS011;4310;51.054;6.994;2022-12-01T07:18:04;72.58;;;65.50;;
8544;SDS011;4310;51.054;6.994;2022-12-01T07:19:08;64.97;;;58.10;;
8544;SDS011;4310;51.054;6.994;2022-12-01T07:20:12;62.23;;;54.48;;
8544;SDS011;4310;51.054;6.994;2022-12-01T07:21:15;60.43;;;53.92;;
8544;SDS011;4310;51.054;6.994;2022-12-01T07:23:31;81.47;;;73.70;;
8544;SDS011;4310;51.054;6.994;2022-12-01T07:25:46;80.50;;;72.80;;
8544;SDS011;4310;51.054;6.994;2022-12-01T07:28:01;82.75;;;75.12;;
8544;SDS011;4310;51.054;6.994;2022-12-01T07:29:05;80.40;;;72.78;;
8544;SDS011;4310;51.054;6.994;2022-12-01T07:30:27;81.00;;;73.02;;